createdAt,value
2022-11-17T00:00:04.738Z,80.26
2022-11-17T00:00:14.886Z,80.26
2022-11-17T00:00:25.023Z,80.26
2022-11-17T00:00:35.048Z,80.26
2022-11-17T00:00:45.147Z,80.26
2022-11-17T00:00:55.206Z,80.26
2022-11-17T00:01:05.301Z,80.15
2022-11-17T00:01:15.377Z,80.15
2022-11-17T00:01:25.450Z,80.05
2022-11-17T00:01:35.549Z,80.05
2022-11-17T00:01:45.637Z,80.05
2022-11-17T00:01:55.747Z,80.05
2022-11-17T00:02:05.896Z,80.05
2022-11-17T00:02:16.063Z,80.08
2022-11-17T00:02:26.229Z,80.08
2022-11-17T00:02:36.367Z,80.08
2022-11-17T00:02:46.401Z,80.08
2022-11-17T00:02:56.388Z,80.08
2022-11-17T00:03:06.467Z,80.19
2022-11-17T00:03:16.578Z,80.19
2022-11-17T00:03:26.665Z,80.29
2022-11-17T00:03:37.140Z,80.29
2022-11-17T00:03:46.768Z,80.40
2022-11-17T00:03:56.889Z,80.40
2022-11-17T00:04:06.988Z,80.50
2022-11-17T00:04:17.079Z,80.50
2022-11-17T00:04:27.267Z,80.50
2022-11-17T00:04:37.369Z,80.50
2022-11-17T00:04:47.436Z,80.50
2022-11-17T00:04:57.528Z,80.50
2022-11-17T00:05:07.664Z,80.50
2022-11-17T00:05:17.757Z,80.60
2022-11-17T00:05:27.846Z,80.60
2022-11-17T00:05:37.984Z,80.60
2022-11-17T00:05:48.077Z,80.60
2022-11-17T00:05:58.210Z,80.60
2022-11-17T00:06:08.357Z,80.60
2022-11-17T00:06:18.446Z,80.60
2022-11-17T00:06:28.546Z,80.60
2022-11-17T00:06:38.648Z,80.60
2022-11-17T00:06:48.761Z,80.71
2022-11-17T00:06:58.920Z,80.71
2022-11-17T00:07:09.055Z,80.60
2022-11-17T00:07:19.203Z,80.71
2022-11-17T00:07:29.207Z,80.71
2022-11-17T00:07:39.286Z,80.81
2022-11-17T00:07:49.392Z,80.81
2022-11-17T00:07:59.477Z,80.81
2022-11-17T00:08:09.597Z,80.91
2022-11-17T00:08:19.684Z,80.81
2022-11-17T00:08:29.767Z,80.95
2022-11-17T00:08:39.844Z,80.95
2022-11-17T00:08:49.928Z,81.05
2022-11-17T00:09:00.020Z,81.05
2022-11-17T00:09:10.138Z,81.16
2022-11-17T00:09:20.250Z,81.16
2022-11-17T00:09:30.372Z,81.16
2022-11-17T00:09:40.446Z,81.26
2022-11-17T00:09:50.538Z,81.26
2022-11-17T00:10:00.629Z,81.37
2022-11-17T00:10:10.706Z,81.37
2022-11-17T00:10:20.784Z,81.37
2022-11-17T00:10:30.887Z,81.47
2022-11-17T00:10:40.978Z,81.47
2022-11-17T00:10:51.074Z,81.57
2022-11-17T00:11:01.159Z,81.57
2022-11-17T00:11:11.256Z,81.68
2022-11-17T00:11:21.338Z,81.68
2022-11-17T00:11:31.506Z,81.68
2022-11-17T00:11:41.586Z,81.78
2022-11-17T00:11:51.719Z,81.68
2022-11-17T00:12:01.796Z,81.78
2022-11-17T00:12:11.908Z,81.78
2022-11-17T00:12:22.914Z,81.68
2022-11-17T00:12:33.111Z,81.78
2022-11-17T00:12:42.166Z,81.68
2022-11-17T00:12:52.265Z,81.68
2022-11-17T00:13:02.364Z,81.68
2022-11-17T00:13:12.458Z,81.68
2022-11-17T00:13:22.591Z,81.68
2022-11-17T00:13:33.026Z,81.68
2022-11-17T00:13:42.675Z,81.68
2022-11-17T00:13:52.767Z,81.68
2022-11-17T00:14:02.887Z,81.68
2022-11-17T00:14:12.965Z,81.68
2022-11-17T00:14:23.045Z,81.68
2022-11-17T00:14:33.145Z,81.68
2022-11-17T00:14:43.264Z,81.68
2022-11-17T00:14:53.357Z,81.68
2022-11-17T00:15:03.445Z,81.78
2022-11-17T00:15:13.546Z,81.78
2022-11-17T00:15:23.633Z,81.78
2022-11-17T00:15:33.835Z,81.78
2022-11-17T00:15:43.753Z,81.78
2022-11-17T00:15:53.835Z,81.78
2022-11-17T00:16:03.941Z,81.78
2022-11-17T00:16:14.025Z,81.68
2022-11-17T00:16:24.104Z,81.68
2022-11-17T00:16:34.184Z,81.68
2022-11-17T00:16:44.286Z,81.78
2022-11-17T00:16:54.363Z,81.68
2022-11-17T00:17:04.459Z,81.68
2022-11-17T00:17:14.555Z,81.68
2022-11-17T00:17:24.725Z,81.68
2022-11-17T00:17:34.849Z,81.57
2022-11-17T00:17:44.935Z,81.57
2022-11-17T00:17:55.076Z,81.57
2022-11-17T00:18:05.189Z,81.47
2022-11-17T00:18:15.285Z,81.47
2022-11-17T00:18:25.385Z,81.47
2022-11-17T00:18:35.485Z,81.47
2022-11-17T00:18:45.575Z,81.47
2022-11-17T00:18:55.670Z,81.47
2022-11-17T00:19:05.766Z,81.47
2022-11-17T00:19:15.855Z,81.47
2022-11-17T00:19:26.000Z,81.47
2022-11-17T00:19:36.115Z,81.47
2022-11-17T00:19:46.205Z,81.47
2022-11-17T00:19:56.305Z,81.47
2022-11-17T00:20:06.416Z,81.47
2022-11-17T00:20:16.502Z,81.47
2022-11-17T00:20:26.605Z,81.47
2022-11-17T00:20:36.684Z,81.47
2022-11-17T00:20:46.806Z,81.47
2022-11-17T00:20:56.933Z,81.47
2022-11-17T00:21:07.066Z,81.61
2022-11-17T00:21:17.156Z,81.61
2022-11-17T00:21:27.264Z,81.61
2022-11-17T00:21:37.335Z,81.71
2022-11-17T00:21:47.436Z,81.71
2022-11-17T00:21:57.516Z,81.71
2022-11-17T00:22:07.638Z,81.71
2022-11-17T00:22:17.735Z,81.71
2022-11-17T00:22:27.889Z,81.82
2022-11-17T00:22:38.004Z,81.82
2022-11-17T00:22:48.112Z,81.82
2022-11-17T00:22:58.252Z,81.82
2022-11-17T00:23:08.345Z,81.82
2022-11-17T00:23:18.431Z,81.92
2022-11-17T00:23:28.522Z,81.92
2022-11-17T00:23:38.604Z,81.92
2022-11-17T00:23:48.714Z,81.92
2022-11-17T00:23:58.795Z,81.92
2022-11-17T00:24:08.895Z,81.92
2022-11-17T00:24:18.998Z,82.03
2022-11-17T00:24:29.085Z,82.03
2022-11-17T00:24:39.198Z,82.03
2022-11-17T00:24:49.323Z,82.03
2022-11-17T00:24:59.455Z,81.99
2022-11-17T00:25:09.535Z,81.99
2022-11-17T00:25:19.614Z,81.99
2022-11-17T00:25:29.703Z,81.99
2022-11-17T00:25:39.784Z,81.99
2022-11-17T00:25:49.864Z,81.99
2022-11-17T00:25:59.943Z,81.88
2022-11-17T00:26:10.029Z,81.99
2022-11-17T00:26:20.126Z,81.88
2022-11-17T00:26:30.189Z,81.88
2022-11-17T00:26:40.273Z,81.88
2022-11-17T00:26:50.365Z,81.78
2022-11-17T00:27:00.513Z,81.78
2022-11-17T00:27:10.594Z,81.68
2022-11-17T00:27:20.682Z,81.68
2022-11-17T00:27:30.754Z,81.68
2022-11-17T00:27:40.845Z,81.57
2022-11-17T00:27:50.915Z,81.57
2022-11-17T00:28:01.004Z,81.57
2022-11-17T00:28:11.084Z,81.57
2022-11-17T00:28:21.153Z,81.57
2022-11-17T00:28:32.592Z,81.57
2022-11-17T00:28:41.323Z,81.57
2022-11-17T00:28:51.416Z,81.57
2022-11-17T00:29:01.506Z,81.57
2022-11-17T00:29:11.586Z,81.57
2022-11-17T00:29:21.691Z,81.57
2022-11-17T00:29:31.764Z,81.57
2022-11-17T00:29:41.872Z,81.47
2022-11-17T00:29:51.957Z,81.47
2022-11-17T00:30:02.041Z,81.47
2022-11-17T00:30:12.195Z,81.37
2022-11-17T00:30:22.283Z,81.37
2022-11-17T00:30:32.352Z,81.37
2022-11-17T00:30:43.952Z,81.37
2022-11-17T00:30:52.454Z,81.37
2022-11-17T00:31:02.653Z,81.37
2022-11-17T00:31:12.553Z,81.37
2022-11-17T00:31:22.631Z,81.37
2022-11-17T00:31:32.714Z,81.37
2022-11-17T00:31:42.834Z,81.37
2022-11-17T00:31:52.956Z,81.37
2022-11-17T00:32:03.041Z,81.37
2022-11-17T00:32:13.113Z,81.37
2022-11-17T00:32:23.203Z,81.37
2022-11-17T00:32:33.274Z,81.37
2022-11-17T00:32:43.369Z,81.37
2022-11-17T00:32:53.524Z,81.37
2022-11-17T00:33:03.645Z,81.37
2022-11-17T00:33:13.722Z,81.37
2022-11-17T00:33:23.814Z,81.26
2022-11-17T00:33:34.096Z,81.26
2022-11-17T00:33:43.971Z,81.16
2022-11-17T00:33:54.125Z,81.12
2022-11-17T00:34:04.255Z,81.05
2022-11-17T00:34:14.342Z,81.02
2022-11-17T00:34:24.440Z,81.02
2022-11-17T00:34:34.562Z,80.91
2022-11-17T00:34:44.641Z,80.91
2022-11-17T00:34:54.761Z,80.91
2022-11-17T00:35:04.874Z,80.81
2022-11-17T00:35:14.974Z,80.71
2022-11-17T00:35:25.104Z,80.71
2022-11-17T00:35:35.193Z,80.71
2022-11-17T00:35:45.284Z,80.71
2022-11-17T00:35:55.391Z,80.71
2022-11-17T00:36:05.484Z,80.60
2022-11-17T00:36:15.573Z,80.60
2022-11-17T00:36:25.692Z,80.60
2022-11-17T00:36:35.817Z,80.60
2022-11-17T00:36:45.903Z,80.50
2022-11-17T00:36:56.021Z,80.50
2022-11-17T00:37:06.122Z,80.50
2022-11-17T00:37:16.221Z,80.54
2022-11-17T00:37:26.319Z,80.50
2022-11-17T00:37:36.403Z,80.54
2022-11-17T00:37:46.511Z,80.54
2022-11-17T00:37:56.595Z,80.54
2022-11-17T00:38:06.691Z,80.54
2022-11-17T00:38:16.800Z,80.54
2022-11-17T00:38:26.891Z,80.64
2022-11-17T00:38:36.971Z,80.64
2022-11-17T00:38:47.061Z,80.64
2022-11-17T00:38:57.169Z,80.64
2022-11-17T00:39:07.247Z,80.64
2022-11-17T00:39:17.323Z,80.74
2022-11-17T00:39:27.414Z,80.74
2022-11-17T00:39:37.533Z,80.74
2022-11-17T00:39:47.623Z,80.64
2022-11-17T00:40:00.707Z,80.64
2022-11-17T00:40:07.814Z,80.64
2022-11-17T00:40:17.880Z,80.64
2022-11-17T00:40:27.962Z,80.54
2022-11-17T00:40:38.047Z,80.54
2022-11-17T00:40:48.144Z,80.54
2022-11-17T00:40:58.280Z,80.54
2022-11-17T00:41:08.361Z,80.54
2022-11-17T00:41:18.432Z,80.54
2022-11-17T00:41:28.512Z,80.54
2022-11-17T00:41:38.616Z,80.54
2022-11-17T00:41:48.703Z,80.54
2022-11-17T00:41:58.849Z,80.43
2022-11-17T00:42:08.952Z,80.43
2022-11-17T00:42:19.040Z,80.54
2022-11-17T00:42:29.161Z,80.54
2022-11-17T00:42:39.243Z,80.54
2022-11-17T00:42:49.335Z,80.54
2022-11-17T00:42:59.432Z,80.54
2022-11-17T00:43:09.511Z,80.54
2022-11-17T00:43:19.582Z,80.64
2022-11-17T00:43:29.670Z,80.64
2022-11-17T00:43:39.758Z,80.64
2022-11-17T00:43:49.841Z,80.64
2022-11-17T00:43:59.901Z,80.74
2022-11-17T00:44:09.984Z,80.74
2022-11-17T00:44:20.087Z,80.74
2022-11-17T00:44:30.169Z,80.85
2022-11-17T00:44:40.267Z,80.85
2022-11-17T00:44:50.354Z,80.85
2022-11-17T00:45:00.344Z,80.95
2022-11-17T00:45:10.442Z,80.85
2022-11-17T00:45:20.511Z,80.85
2022-11-17T00:45:30.641Z,80.85
2022-11-17T00:45:40.748Z,80.85
2022-11-17T00:45:50.821Z,80.85
2022-11-17T00:46:00.901Z,80.85
2022-11-17T00:46:10.996Z,80.85
2022-11-17T00:46:21.081Z,80.85
2022-11-17T00:46:31.181Z,80.85
2022-11-17T00:46:41.251Z,80.85
2022-11-17T00:46:51.334Z,80.85
2022-11-17T00:47:01.427Z,80.85
2022-11-17T00:47:11.511Z,80.85
2022-11-17T00:47:21.600Z,80.85
2022-11-17T00:47:31.691Z,80.85
2022-11-17T00:47:41.782Z,80.85
2022-11-17T00:47:51.863Z,80.85
2022-11-17T00:48:01.952Z,80.95
2022-11-17T00:48:12.040Z,80.95
2022-11-17T00:48:22.118Z,80.95
2022-11-17T00:48:32.205Z,81.05
2022-11-17T00:48:42.293Z,81.05
2022-11-17T00:48:52.400Z,81.16
2022-11-17T00:49:02.499Z,81.20
2022-11-17T00:49:12.597Z,81.20
2022-11-17T00:49:22.692Z,81.20
2022-11-17T00:49:32.770Z,81.20
2022-11-17T00:49:42.939Z,81.16
2022-11-17T00:49:53.019Z,81.09
2022-11-17T00:50:03.140Z,81.20
2022-11-17T00:50:13.240Z,81.20
2022-11-17T00:50:23.343Z,81.20
2022-11-17T00:50:33.422Z,81.20
2022-11-17T00:50:43.542Z,81.09
2022-11-17T00:50:53.622Z,81.20
2022-11-17T00:51:03.742Z,81.20
2022-11-17T00:51:13.863Z,81.20
2022-11-17T00:51:23.959Z,81.20
2022-11-17T00:51:34.029Z,81.20
2022-11-17T00:51:44.156Z,81.20
2022-11-17T00:51:54.252Z,81.26
2022-11-17T00:52:04.350Z,81.26
2022-11-17T00:52:14.441Z,81.26
2022-11-17T00:52:24.538Z,81.26
2022-11-17T00:52:34.620Z,81.26
2022-11-17T00:52:44.723Z,81.26
2022-11-17T00:52:54.831Z,81.16
2022-11-17T00:53:04.911Z,81.16
2022-11-17T00:53:14.987Z,81.05
2022-11-17T00:53:25.089Z,81.05
2022-11-17T00:53:35.473Z,81.05
2022-11-17T00:53:45.244Z,81.05
2022-11-17T00:53:55.299Z,81.05
2022-11-17T00:54:05.429Z,81.05
2022-11-17T00:54:15.511Z,81.05
2022-11-17T00:54:25.610Z,81.05
2022-11-17T00:54:35.698Z,81.05
2022-11-17T00:54:45.796Z,81.05
2022-11-17T00:54:55.899Z,81.05
2022-11-17T00:55:06.029Z,80.99
2022-11-17T00:55:16.016Z,81.09
2022-11-17T00:55:26.077Z,81.09
2022-11-17T00:55:36.076Z,81.09
2022-11-17T00:55:46.201Z,81.09
2022-11-17T00:55:56.299Z,81.20
2022-11-17T00:56:06.391Z,81.20
2022-11-17T00:56:16.507Z,81.20
2022-11-17T00:56:26.620Z,81.20
2022-11-17T00:56:36.699Z,81.20
2022-11-17T00:56:46.785Z,81.20
2022-11-17T00:56:56.872Z,81.20
2022-11-17T00:57:06.912Z,81.20
2022-11-17T00:57:16.971Z,81.20
2022-11-17T00:57:27.099Z,81.30
2022-11-17T00:57:37.199Z,81.30
2022-11-17T00:57:49.606Z,81.30
2022-11-17T00:58:06.712Z,81.40
2022-11-17T00:58:16.803Z,81.40
2022-11-17T00:58:42.470Z,81.40
2022-11-17T00:58:52.470Z,81.51
2022-11-17T00:59:02.589Z,81.51
2022-11-17T00:59:12.780Z,81.51
2022-11-17T00:59:22.919Z,81.51
2022-11-17T00:59:33.081Z,81.51
2022-11-17T00:59:43.235Z,81.40
2022-11-17T00:59:53.335Z,81.40
2022-11-17T01:00:03.493Z,81.40
2022-11-17T01:00:13.618Z,81.30
2022-11-17T01:00:23.768Z,81.30
2022-11-17T01:00:33.889Z,81.30
2022-11-17T01:00:44.047Z,81.20
2022-11-17T01:00:54.191Z,81.20
2022-11-17T01:01:04.413Z,81.20
2022-11-17T01:01:14.469Z,81.20
2022-11-17T01:01:24.518Z,81.20
2022-11-17T01:01:34.538Z,81.20
2022-11-17T01:01:44.559Z,81.20
2022-11-17T01:01:54.701Z,81.20
2022-11-17T01:02:04.806Z,81.20
2022-11-17T01:02:14.889Z,81.20
2022-11-17T01:02:24.989Z,81.20
2022-11-17T01:02:35.088Z,81.20
2022-11-17T01:02:45.178Z,81.30
2022-11-17T01:02:55.276Z,81.30
2022-11-17T01:03:05.349Z,81.20
2022-11-17T01:03:15.427Z,81.20
2022-11-17T01:03:25.547Z,81.20
2022-11-17T01:03:36.036Z,81.20
2022-11-17T01:03:45.791Z,81.20
2022-11-17T01:03:55.902Z,81.20
2022-11-17T01:04:06.020Z,81.20
2022-11-17T01:04:16.108Z,81.20
2022-11-17T01:04:26.139Z,81.20
2022-11-17T01:04:36.228Z,81.20
2022-11-17T01:04:46.346Z,81.20
2022-11-17T01:04:56.320Z,81.20
2022-11-17T01:05:06.417Z,81.20
2022-11-17T01:05:16.500Z,81.20
2022-11-17T01:05:30.334Z,81.20
2022-11-17T01:05:37.452Z,81.20
2022-11-17T01:05:47.579Z,81.20
2022-11-17T01:05:57.686Z,81.30
2022-11-17T01:06:07.751Z,81.30
2022-11-17T01:06:17.819Z,81.30
2022-11-17T01:06:27.929Z,81.30
2022-11-17T01:06:38.058Z,81.30
2022-11-17T01:06:48.161Z,81.40
2022-11-17T01:06:58.223Z,81.40
2022-11-17T01:07:08.357Z,81.40
2022-11-17T01:07:18.384Z,81.51
2022-11-17T01:07:28.518Z,81.51
2022-11-17T01:07:38.575Z,81.51
2022-11-17T01:07:48.510Z,81.51
2022-11-17T01:07:58.602Z,81.51
2022-11-17T01:08:08.687Z,81.51
2022-11-17T01:08:18.817Z,81.51
2022-11-17T01:08:28.900Z,81.51
2022-11-17T01:08:38.986Z,81.51
2022-11-17T01:08:49.079Z,81.40
2022-11-17T01:08:59.149Z,81.40
2022-11-17T01:09:09.216Z,81.30
2022-11-17T01:09:19.296Z,81.30
2022-11-17T01:09:29.377Z,81.30
2022-11-17T01:09:39.527Z,81.30
2022-11-17T01:09:49.613Z,81.30
2022-11-17T01:09:59.717Z,81.20
2022-11-17T01:10:09.798Z,81.20
2022-11-17T01:10:19.877Z,81.20
2022-11-17T01:10:30.003Z,81.09
2022-11-17T01:10:40.077Z,81.05
2022-11-17T01:10:50.148Z,80.99
2022-11-17T01:11:00.248Z,80.88
2022-11-17T01:11:10.335Z,80.88
2022-11-17T01:11:20.436Z,80.78
2022-11-17T01:11:30.564Z,80.78
2022-11-17T01:11:40.639Z,80.64
2022-11-17T01:11:50.748Z,80.68
2022-11-17T01:12:00.827Z,80.68
2022-11-17T01:12:10.916Z,80.68
2022-11-17T01:12:20.989Z,80.57
2022-11-17T01:12:31.088Z,80.57
2022-11-17T01:12:41.185Z,80.57
2022-11-17T01:12:51.335Z,80.57
2022-11-17T01:13:01.457Z,80.57
2022-11-17T01:13:11.547Z,80.57
2022-11-17T01:13:21.645Z,80.57
2022-11-17T01:13:31.907Z,80.57
2022-11-17T01:13:41.849Z,80.57
2022-11-17T01:13:51.930Z,80.57
2022-11-17T01:14:02.019Z,80.57
2022-11-17T01:14:12.106Z,80.57
2022-11-17T01:14:22.202Z,80.57
2022-11-17T01:14:32.307Z,80.57
2022-11-17T01:14:42.405Z,80.47
2022-11-17T01:14:52.488Z,80.47
2022-11-17T01:15:02.629Z,80.47
2022-11-17T01:15:12.706Z,80.47
2022-11-17T01:15:22.806Z,80.47
2022-11-17T01:15:32.887Z,80.47
2022-11-17T01:15:43.037Z,80.47
2022-11-17T01:15:53.138Z,80.47
2022-11-17T01:16:03.233Z,80.57
2022-11-17T01:16:13.315Z,80.57
2022-11-17T01:16:23.387Z,80.57
2022-11-17T01:16:33.455Z,80.57
2022-11-17T01:16:43.573Z,80.47
2022-11-17T01:16:53.676Z,80.47
2022-11-17T01:17:03.762Z,80.47
2022-11-17T01:17:13.825Z,80.47
2022-11-17T01:17:23.946Z,80.47
2022-11-17T01:17:34.046Z,80.47
2022-11-17T01:17:44.135Z,80.47
2022-11-17T01:17:54.234Z,80.47
2022-11-17T01:18:04.314Z,80.47
2022-11-17T01:18:14.426Z,80.47
2022-11-17T01:18:24.515Z,80.57
2022-11-17T01:18:34.615Z,80.57
2022-11-17T01:18:44.824Z,80.57
2022-11-17T01:18:54.738Z,80.57
2022-11-17T01:19:04.817Z,80.57
2022-11-17T01:19:14.952Z,80.57
2022-11-17T01:19:25.065Z,80.57
2022-11-17T01:19:35.148Z,80.57
2022-11-17T01:19:45.294Z,80.57
2022-11-17T01:19:55.376Z,80.57
2022-11-17T01:20:05.487Z,80.57
2022-11-17T01:20:15.596Z,80.68
2022-11-17T01:20:25.664Z,80.68
2022-11-17T01:20:35.766Z,80.68
2022-11-17T01:20:45.847Z,80.68
2022-11-17T01:20:55.940Z,80.68
2022-11-17T01:21:06.118Z,80.68
2022-11-17T01:21:16.035Z,80.68
2022-11-17T01:21:26.139Z,80.68
2022-11-17T01:21:36.243Z,80.78
2022-11-17T01:21:46.346Z,80.78
2022-11-17T01:21:56.426Z,80.78
2022-11-17T01:22:06.546Z,80.88
2022-11-17T01:22:16.673Z,80.88
2022-11-17T01:22:26.774Z,80.88
2022-11-17T01:22:36.867Z,80.88
2022-11-17T01:22:46.976Z,80.88
2022-11-17T01:22:57.055Z,80.88
2022-11-17T01:23:07.136Z,80.88
2022-11-17T01:23:17.241Z,80.88
2022-11-17T01:23:27.356Z,80.99
2022-11-17T01:23:37.500Z,80.99
2022-11-17T01:23:47.564Z,80.99
2022-11-17T01:23:57.669Z,80.99
2022-11-17T01:24:07.765Z,80.99
2022-11-17T01:24:17.845Z,80.99
2022-11-17T01:24:27.936Z,81.09
2022-11-17T01:24:38.061Z,81.09
2022-11-17T01:24:48.194Z,81.09
2022-11-17T01:24:58.323Z,80.99
2022-11-17T01:25:08.402Z,80.99
2022-11-17T01:25:18.494Z,80.99
2022-11-17T01:25:28.587Z,80.99
2022-11-17T01:25:38.666Z,80.99
2022-11-17T01:25:48.792Z,80.99
2022-11-17T01:25:58.925Z,80.99
2022-11-17T01:26:08.995Z,80.99
2022-11-17T01:26:19.084Z,80.99
2022-11-17T01:26:29.184Z,80.99
2022-11-17T01:26:39.262Z,80.99
2022-11-17T01:26:49.358Z,80.99
2022-11-17T01:26:59.455Z,80.99
2022-11-17T01:27:09.566Z,80.99
2022-11-17T01:27:19.645Z,80.99
2022-11-17T01:27:29.745Z,80.88
2022-11-17T01:27:39.843Z,80.88
2022-11-17T01:27:49.939Z,80.88
2022-11-17T01:28:00.045Z,80.99
2022-11-17T01:28:10.117Z,80.99
2022-11-17T01:28:20.193Z,80.99
2022-11-17T01:28:30.296Z,80.99
2022-11-17T01:28:40.374Z,80.99
2022-11-17T01:28:50.482Z,80.99
2022-11-17T01:29:00.574Z,80.99
2022-11-17T01:29:10.663Z,80.99
2022-11-17T01:29:20.775Z,80.99
2022-11-17T01:29:30.866Z,80.99
2022-11-17T01:29:40.970Z,80.99
2022-11-17T01:29:51.084Z,80.99
2022-11-17T01:30:01.202Z,80.99
2022-11-17T01:30:11.339Z,80.99
2022-11-17T01:30:21.437Z,80.99
2022-11-17T01:30:31.515Z,80.99
2022-11-17T01:30:41.613Z,80.99
2022-11-17T01:30:51.695Z,80.99
2022-11-17T01:31:01.882Z,80.88
2022-11-17T01:31:11.806Z,80.99
2022-11-17T01:31:21.913Z,80.99
2022-11-17T01:31:32.011Z,80.99
2022-11-17T01:31:42.084Z,80.99
2022-11-17T01:31:52.186Z,80.99
2022-11-17T01:32:02.286Z,80.99
2022-11-17T01:32:12.384Z,80.88
2022-11-17T01:32:22.504Z,80.88
2022-11-17T01:32:32.603Z,80.78
2022-11-17T01:32:42.592Z,80.88
2022-11-17T01:32:52.694Z,80.88
2022-11-17T01:33:02.794Z,80.88
2022-11-17T01:33:12.865Z,80.88
2022-11-17T01:33:22.955Z,80.99
2022-11-17T01:33:33.466Z,80.99
2022-11-17T01:33:43.090Z,80.99
2022-11-17T01:33:53.179Z,81.09
2022-11-17T01:34:03.323Z,81.09
2022-11-17T01:34:13.402Z,81.09
2022-11-17T01:34:23.463Z,81.09
2022-11-17T01:34:33.568Z,81.09
2022-11-17T01:34:43.644Z,81.09
2022-11-17T01:34:53.743Z,81.09
2022-11-17T01:35:03.833Z,80.99
2022-11-17T01:35:13.910Z,80.99
2022-11-17T01:35:23.979Z,80.88
2022-11-17T01:35:34.061Z,80.88
2022-11-17T01:35:44.145Z,80.88
2022-11-17T01:35:54.253Z,80.88
2022-11-17T01:36:04.334Z,80.88
2022-11-17T01:36:14.434Z,80.99
2022-11-17T01:36:24.526Z,80.99
2022-11-17T01:36:34.602Z,80.99
2022-11-17T01:36:44.685Z,80.99
2022-11-17T01:36:54.766Z,80.99
2022-11-17T01:37:04.853Z,81.09
2022-11-17T01:37:14.979Z,81.09
2022-11-17T01:37:25.063Z,81.09
2022-11-17T01:37:35.163Z,81.09
2022-11-17T01:37:45.254Z,81.09
2022-11-17T01:37:55.323Z,81.09
2022-11-17T01:38:05.413Z,81.09
2022-11-17T01:38:15.503Z,81.20
2022-11-17T01:38:25.561Z,81.09
2022-11-17T01:38:35.633Z,81.20
2022-11-17T01:38:45.712Z,81.20
2022-11-17T01:38:55.792Z,81.20
2022-11-17T01:39:05.882Z,81.20
2022-11-17T01:39:16.002Z,81.20
2022-11-17T01:39:26.101Z,81.20
2022-11-17T01:39:36.193Z,81.09
2022-11-17T01:39:46.284Z,81.09
2022-11-17T01:39:56.386Z,80.99
2022-11-17T01:40:06.461Z,80.88
2022-11-17T01:40:16.559Z,80.88
2022-11-17T01:40:26.674Z,80.88
2022-11-17T01:40:36.770Z,80.78
2022-11-17T01:40:46.852Z,80.68
2022-11-17T01:40:56.924Z,80.57
2022-11-17T01:41:07.012Z,80.57
2022-11-17T01:41:17.101Z,80.57
2022-11-17T01:41:27.186Z,80.47
2022-11-17T01:41:37.292Z,80.47
2022-11-17T01:41:47.353Z,80.47
2022-11-17T01:41:57.463Z,80.47
2022-11-17T01:42:07.531Z,80.47
2022-11-17T01:42:17.614Z,80.36
2022-11-17T01:42:27.702Z,80.26
2022-11-17T01:42:37.801Z,80.26
2022-11-17T01:42:47.884Z,80.36
2022-11-17T01:42:57.975Z,80.36
2022-11-17T01:43:08.054Z,80.26
2022-11-17T01:43:18.149Z,80.36
2022-11-17T01:43:28.238Z,80.36
2022-11-17T01:43:38.351Z,80.36
2022-11-17T01:43:48.447Z,80.36
2022-11-17T01:43:58.493Z,80.47
2022-11-17T01:44:08.690Z,80.47
2022-11-17T01:44:18.619Z,80.47
2022-11-17T01:44:28.792Z,80.57
2022-11-17T01:44:38.862Z,80.57
2022-11-17T01:44:48.944Z,80.57
2022-11-17T01:44:59.050Z,80.68
2022-11-17T01:45:09.150Z,80.68
2022-11-17T01:45:19.242Z,80.68
2022-11-17T01:45:29.373Z,80.68
2022-11-17T01:45:39.460Z,80.68
2022-11-17T01:45:49.541Z,80.68
2022-11-17T01:45:59.622Z,80.78
2022-11-17T01:46:09.695Z,80.78
2022-11-17T01:46:19.782Z,80.78
2022-11-17T01:46:29.901Z,80.78
2022-11-17T01:46:40.002Z,80.78
2022-11-17T01:46:50.070Z,80.78
2022-11-17T01:47:01.186Z,80.78
2022-11-17T01:47:10.260Z,80.78
2022-11-17T01:47:20.360Z,80.78
2022-11-17T01:47:30.451Z,80.78
2022-11-17T01:47:40.660Z,80.78
2022-11-17T01:47:50.645Z,80.88
2022-11-17T01:48:00.779Z,80.88
2022-11-17T01:48:10.871Z,80.78
2022-11-17T01:48:20.991Z,80.78
2022-11-17T01:48:31.104Z,80.88
2022-11-17T01:48:41.221Z,80.88
2022-11-17T01:48:51.319Z,80.88
2022-11-17T01:49:01.446Z,80.88
2022-11-17T01:49:11.511Z,80.88
2022-11-17T01:49:21.593Z,80.88
2022-11-17T01:49:31.681Z,80.88
2022-11-17T01:49:41.761Z,80.88
2022-11-17T01:49:51.872Z,80.78
2022-11-17T01:50:01.980Z,80.78
2022-11-17T01:50:12.075Z,80.78
2022-11-17T01:50:22.210Z,80.78
2022-11-17T01:50:32.340Z,80.68
2022-11-17T01:50:42.431Z,80.68
2022-11-17T01:50:52.542Z,80.68
2022-11-17T01:51:02.642Z,80.68
2022-11-17T01:51:12.719Z,80.68
2022-11-17T01:51:22.800Z,80.68
2022-11-17T01:51:32.879Z,80.68
2022-11-17T01:51:42.969Z,80.68
2022-11-17T01:51:53.067Z,80.68
2022-11-17T01:52:03.169Z,80.57
2022-11-17T01:52:13.249Z,80.57
2022-11-17T01:52:23.330Z,80.57
2022-11-17T01:52:33.419Z,80.57
2022-11-17T01:52:43.512Z,80.68
2022-11-17T01:52:53.630Z,80.71
2022-11-17T01:53:03.715Z,80.82
2022-11-17T01:53:13.809Z,80.82
2022-11-17T01:53:23.971Z,80.82
2022-11-17T01:53:34.388Z,80.92
2022-11-17T01:53:44.260Z,80.92
2022-11-17T01:53:54.351Z,80.92
2022-11-17T01:54:04.440Z,80.92
2022-11-17T01:54:14.523Z,81.02
2022-11-17T01:54:24.629Z,81.02
2022-11-17T01:54:34.769Z,81.02
2022-11-17T01:54:44.849Z,81.02
2022-11-17T01:54:54.958Z,81.02
2022-11-17T01:55:05.092Z,81.02
2022-11-17T01:55:15.178Z,81.02
2022-11-17T01:55:25.279Z,81.02
2022-11-17T01:55:35.361Z,81.02
2022-11-17T01:55:45.440Z,81.13
2022-11-17T01:55:55.520Z,81.13
2022-11-17T01:56:05.609Z,81.13
2022-11-17T01:56:15.699Z,81.13
2022-11-17T01:56:25.798Z,81.13
2022-11-17T01:56:35.899Z,81.13
2022-11-17T01:56:45.979Z,81.13
2022-11-17T01:56:56.069Z,81.13
2022-11-17T01:57:06.149Z,81.13
2022-11-17T01:57:16.234Z,81.13
2022-11-17T01:57:26.322Z,81.13
2022-11-17T01:57:36.450Z,81.13
2022-11-17T01:57:46.550Z,81.13
2022-11-17T01:57:56.640Z,81.13
2022-11-17T01:58:06.758Z,81.13
2022-11-17T01:58:16.851Z,81.13
2022-11-17T01:58:26.939Z,81.13
2022-11-17T01:58:37.017Z,81.13
2022-11-17T01:58:47.128Z,81.13
2022-11-17T01:58:57.218Z,81.13
2022-11-17T01:59:07.300Z,81.23
2022-11-17T01:59:17.386Z,81.23
2022-11-17T01:59:27.469Z,81.23
2022-11-17T01:59:37.610Z,81.23
2022-11-17T01:59:47.673Z,81.23
2022-11-17T01:59:57.799Z,81.23
2022-11-17T02:00:07.867Z,81.23
2022-11-17T02:00:17.976Z,81.23
2022-11-17T02:00:28.094Z,81.23
2022-11-17T02:00:38.179Z,81.23
2022-11-17T02:00:48.259Z,81.13
2022-11-17T02:00:58.367Z,81.13
2022-11-17T02:01:08.553Z,81.13
2022-11-17T02:01:18.677Z,81.13
2022-11-17T02:01:28.781Z,81.13
2022-11-17T02:01:38.940Z,81.13
2022-11-17T02:01:49.064Z,81.13
2022-11-17T02:01:59.050Z,81.13
2022-11-17T02:02:09.159Z,81.13
2022-11-17T02:02:19.278Z,81.13
2022-11-17T02:02:29.408Z,81.13
2022-11-17T02:02:39.459Z,81.13
2022-11-17T02:02:49.552Z,81.13
2022-11-17T02:02:59.640Z,81.23
2022-11-17T02:03:09.710Z,81.23
2022-11-17T02:03:19.789Z,81.23
2022-11-17T02:03:29.896Z,81.23
2022-11-17T02:03:39.978Z,81.23
2022-11-17T02:03:50.058Z,81.23
2022-11-17T02:04:00.158Z,81.23
2022-11-17T02:04:10.268Z,81.23
2022-11-17T02:04:20.362Z,81.23
2022-11-17T02:04:30.467Z,81.23
2022-11-17T02:04:40.558Z,81.23
2022-11-17T02:04:50.727Z,81.23
2022-11-17T02:05:00.827Z,81.34
2022-11-17T02:05:10.918Z,81.34
2022-11-17T02:05:21.028Z,81.34
2022-11-17T02:05:31.189Z,81.34
2022-11-17T02:05:41.291Z,81.44
2022-11-17T02:05:51.407Z,81.44
2022-11-17T02:06:01.488Z,81.34
2022-11-17T02:06:11.579Z,81.34
2022-11-17T02:06:21.698Z,81.34
2022-11-17T02:06:31.811Z,81.23
2022-11-17T02:06:41.957Z,81.23
2022-11-17T02:06:52.097Z,81.23
2022-11-17T02:07:02.308Z,81.23
2022-11-17T02:07:12.298Z,81.13
2022-11-17T02:07:22.446Z,81.13
2022-11-17T02:07:32.501Z,81.13
2022-11-17T02:07:42.439Z,81.13
2022-11-17T02:07:52.560Z,81.13
2022-11-17T02:08:02.668Z,81.23
2022-11-17T02:08:12.778Z,81.23
2022-11-17T02:08:22.890Z,81.23
2022-11-17T02:08:32.997Z,81.23
2022-11-17T02:08:43.087Z,81.34
2022-11-17T02:08:53.178Z,81.34
2022-11-17T02:09:03.289Z,81.34
2022-11-17T02:09:13.377Z,81.44
2022-11-17T02:09:23.467Z,81.44
2022-11-17T02:09:33.568Z,81.44
2022-11-17T02:09:43.671Z,81.44
2022-11-17T02:09:53.777Z,81.54
2022-11-17T02:10:03.857Z,81.54
2022-11-17T02:10:13.989Z,81.54
2022-11-17T02:10:24.078Z,81.54